sensor_id;sensor_type;location;lat;lon;timestamp;temperature;humidity
49124;DHT22;48506;48.202;16.274;2024-02-16T00:02:00;8.00;99.60
49124;DHT22;48506;48.202;16.274;2024-02-16T00:04:27;7.90;99.50
49124;DHT22;48506;48.202;16.274;2024-02-16T00:06:53;7.90;99.50
49124;DHT22;48506;48.202;16.274;2024-02-16T00:09:19;7.90;99.50
49124;DHT22;48506;48.202;16.274;2024-02-16T00:11:45;7.90;99.60
49124;DHT22;48506;48.202;16.274;2024-02-16T00:14:12;7.90;99.60
49124;DHT22;48506;48.202;16.274;2024-02-16T00:16:38;7.90;99.60
49124;DHT22;48506;48.202;16.274;2024-02-16T00:19:04;7.90;99.50
49124;DHT22;48506;48.202;16.274;2024-02-16T00:21:30;7.80;99.60
49124;DHT22;48506;48.202;16.274;2024-02-16T00:23:56;7.90;99.70
49124;DHT22;48506;48.202;16.274;2024-02-16T00:26:21;7.80;99.60
49124;DHT22;48506;48.202;16.274;2024-02-16T00:28:49;7.80;99.70
49124;DHT22;48506;48.202;16.274;2024-02-16T00:31:14;7.80;99.70
49124;DHT22;48506;48.202;16.274;2024-02-16T00:33:40;7.80;99.70
49124;DHT22;48506;48.202;16.274;2024-02-16T00:36:07;7.80;99.80
49124;DHT22;48506;48.202;16.274;2024-02-16T00:38:33;7.70;99.70
49124;DHT22;48506;48.202;16.274;2024-02-16T00:40:58;7.70;99.70
49124;DHT22;48506;48.202;16.274;2024-02-16T00:43:24;7.70;99.80
49124;DHT22;48506;48.202;16.274;2024-02-16T00:45:50;7.70;99.80
49124;DHT22;48506;48.202;16.274;2024-02-16T00:48:16;7.70;99.90
49124;DHT22;48506;48.202;16.274;2024-02-16T00:50:42;7.70;99.90
49124;DHT22;48506;48.202;16.274;2024-02-16T00:53:08;7.60;99.90
49124;DHT22;48506;48.202;16.274;2024-02-16T00:55:34;7.60;99.90
49124;DHT22;48506;48.202;16.274;2024-02-16T00:58:00;7.60;99.90
49124;DHT22;48506;48.202;16.274;2024-02-16T01:00:26;7.60;99.90
49124;DHT22;48506;48.202;16.274;2024-02-16T01:02:52;7.60;99.90
49124;DHT22;48506;48.202;16.274;2024-02-16T01:05:18;7.60;99.90
49124;DHT22;48506;48.202;16.274;2024-02-16T01:07:44;7.70;99.90
49124;DHT22;48506;48.202;16.274;2024-02-16T01:10:11;7.70;99.90
49124;DHT22;48506;48.202;16.274;2024-02-16T01:12:38;7.60;99.90
49124;DHT22;48506;48.202;16.274;2024-02-16T01:15:04;7.60;99.90
49124;DHT22;48506;48.202;16.274;2024-02-16T01:17:30;7.60;99.90
49124;DHT22;48506;48.202;16.274;2024-02-16T01:19:58;7.60;99.90
49124;DHT22;48506;48.202;16.274;2024-02-16T01:22:25;7.60;99.90
49124;DHT22;48506;48.202;16.274;2024-02-16T01:24:51;7.60;99.90
49124;DHT22;48506;48.202;16.274;2024-02-16T01:27:16;7.60;99.90
49124;DHT22;48506;48.202;16.274;2024-02-16T01:29:42;7.60;99.90
49124;DHT22;48506;48.202;16.274;2024-02-16T01:32:08;7.70;99.90
49124;DHT22;48506;48.202;16.274;2024-02-16T01:34:34;7.70;99.80
49124;DHT22;48506;48.202;16.274;2024-02-16T01:37:00;7.70;99.80
49124;DHT22;48506;48.202;16.274;2024-02-16T01:39:26;7.60;99.80
49124;DHT22;48506;48.202;16.274;2024-02-16T01:41:52;7.70;99.90
49124;DHT22;48506;48.202;16.274;2024-02-16T01:44:21;7.70;99.80
49124;DHT22;48506;48.202;16.274;2024-02-16T01:46:47;7.60;99.80
49124;DHT22;48506;48.202;16.274;2024-02-16T01:49:14;7.60;99.70
49124;DHT22;48506;48.202;16.274;2024-02-16T01:51:41;7.60;99.80
49124;DHT22;48506;48.202;16.274;2024-02-16T01:54:08;7.60;99.80
49124;DHT22;48506;48.202;16.274;2024-02-16T01:56:34;7.60;99.80
49124;DHT22;48506;48.202;16.274;2024-02-16T01:59:00;7.60;99.80
49124;DHT22;48506;48.202;16.274;2024-02-16T02:01:25;7.60;99.80
49124;DHT22;48506;48.202;16.274;2024-02-16T02:03:51;7.60;99.80
49124;DHT22;48506;48.202;16.274;2024-02-16T02:06:17;7.60;99.80
49124;DHT22;48506;48.202;16.274;2024-02-16T02:08:43;7.60;99.80
49124;DHT22;48506;48.202;16.274;2024-02-16T02:11:09;7.60;99.90
49124;DHT22;48506;48.202;16.274;2024-02-16T02:13:35;7.60;99.90
49124;DHT22;48506;48.202;16.274;2024-02-16T02:16:03;7.50;99.80
49124;DHT22;48506;48.202;16.274;2024-02-16T02:18:30;7.50;99.90
49124;DHT22;48506;48.202;16.274;2024-02-16T02:20:56;7.50;99.80
49124;DHT22;48506;48.202;16.274;2024-02-16T02:23:21;7.50;99.80
49124;DHT22;48506;48.202;16.274;2024-02-16T02:25:47;7.50;99.80
49124;DHT22;48506;48.202;16.274;2024-02-16T02:28:15;7.50;99.70
49124;DHT22;48506;48.202;16.274;2024-02-16T02:30:43;7.50;99.60
49124;DHT22;48506;48.202;16.274;2024-02-16T02:33:11;7.50;99.70
49124;DHT22;48506;48.202;16.274;2024-02-16T02:35:39;7.50;99.70
49124;DHT22;48506;48.202;16.274;2024-02-16T02:38:05;7.50;99.70
49124;DHT22;48506;48.202;16.274;2024-02-16T02:40:32;7.40;99.70
49124;DHT22;48506;48.202;16.274;2024-02-16T02:42:58;7.40;99.70
49124;DHT22;48506;48.202;16.274;2024-02-16T02:45:24;7.40;99.70
49124;DHT22;48506;48.202;16.274;2024-02-16T02:47:51;7.40;99.70
49124;DHT22;48506;48.202;16.274;2024-02-16T02:50:17;7.30;99.70
49124;DHT22;48506;48.202;16.274;2024-02-16T02:52:44;7.30;99.80
49124;DHT22;48506;48.202;16.274;2024-02-16T02:55:11;7.30;99.70
49124;DHT22;48506;48.202;16.274;2024-02-16T02:57:37;7.30;99.80
49124;DHT22;48506;48.202;16.274;2024-02-16T03:00:06;7.20;99.90
49124;DHT22;48506;48.202;16.274;2024-02-16T03:02:41;7.20;99.80
49124;DHT22;48506;48.202;16.274;2024-02-16T03:05:09;7.20;99.90
49124;DHT22;48506;48.202;16.274;2024-02-16T03:07:35;7.20;99.90
49124;DHT22;48506;48.202;16.274;2024-02-16T03:10:02;7.10;99.90
49124;DHT22;48506;48.202;16.274;2024-02-16T03:12:29;7.10;99.90
49124;DHT22;48506;48.202;16.274;2024-02-16T03:14:55;7.10;99.90
49124;DHT22;48506;48.202;16.274;2024-02-16T03:17:21;7.00;99.90
49124;DHT22;48506;48.202;16.274;2024-02-16T03:19:47;7.00;99.80
49124;DHT22;48506;48.202;16.274;2024-02-16T03:22:13;7.00;99.70
49124;DHT22;48506;48.202;16.274;2024-02-16T03:24:39;6.90;99.60
49124;DHT22;48506;48.202;16.274;2024-02-16T03:27:05;6.90;99.70
49124;DHT22;48506;48.202;16.274;2024-02-16T03:29:31;6.80;99.80
49124;DHT22;48506;48.202;16.274;2024-02-16T03:31:57;6.80;99.90
49124;DHT22;48506;48.202;16.274;2024-02-16T03:34:23;6.80;99.90
49124;DHT22;48506;48.202;16.274;2024-02-16T03:36:49;6.80;99.90
49124;DHT22;48506;48.202;16.274;2024-02-16T03:39:15;6.80;99.90
49124;DHT22;48506;48.202;16.274;2024-02-16T03:41:45;6.80;99.90
49124;DHT22;48506;48.202;16.274;2024-02-16T03:44:15;6.80;99.90
49124;DHT22;48506;48.202;16.274;2024-02-16T03:46:42;6.70;99.90
49124;DHT22;48506;48.202;16.274;2024-02-16T03:49:09;6.70;99.90
49124;DHT22;48506;48.202;16.274;2024-02-16T03:51:36;6.70;99.90
49124;DHT22;48506;48.202;16.274;2024-02-16T03:54:03;6.70;99.90
49124;DHT22;48506;48.202;16.274;2024-02-16T03:56:30;6.70;99.90
49124;DHT22;48506;48.202;16.274;2024-02-16T03:58:56;6.60;99.90
49124;DHT22;48506;48.202;16.274;2024-02-16T04:01:23;6.70;99.90
49124;DHT22;48506;48.202;16.274;2024-02-16T04:03:49;6.70;99.90
49124;DHT22;48506;48.202;16.274;2024-02-16T04:06:15;6.70;99.90
49124;DHT22;48506;48.202;16.274;2024-02-16T04:08:40;6.70;99.90
49124;DHT22;48506;48.202;16.274;2024-02-16T04:11:06;6.70;99.90
49124;DHT22;48506;48.202;16.274;2024-02-16T04:13:32;6.70;99.90
49124;DHT22;48506;48.202;16.274;2024-02-16T04:15:58;6.70;99.90
49124;DHT22;48506;48.202;16.274;2024-02-16T04:18:24;6.70;99.90
49124;DHT22;48506;48.202;16.274;2024-02-16T04:20:50;6.70;99.90
49124;DHT22;48506;48.202;16.274;2024-02-16T04:23:16;6.80;99.90
49124;DHT22;48506;48.202;16.274;2024-02-16T04:25:41;6.70;99.90
49124;DHT22;48506;48.202;16.274;2024-02-16T04:28:07;6.70;99.90
49124;DHT22;48506;48.202;16.274;2024-02-16T04:30:33;6.70;99.90
49124;DHT22;48506;48.202;16.274;2024-02-16T04:32:59;6.70;99.90
49124;DHT22;48506;48.202;16.274;2024-02-16T04:35:25;6.70;99.90
49124;DHT22;48506;48.202;16.274;2024-02-16T04:37:51;6.70;99.90
49124;DHT22;48506;48.202;16.274;2024-02-16T04:40:16;6.70;99.90
49124;DHT22;48506;48.202;16.274;2024-02-16T04:42:42;6.70;99.90
49124;DHT22;48506;48.202;16.274;2024-02-16T04:45:11;6.60;99.90
49124;DHT22;48506;48.202;16.274;2024-02-16T04:47:38;6.60;99.90
49124;DHT22;48506;48.202;16.274;2024-02-16T04:50:06;6.60;99.90
49124;DHT22;48506;48.202;16.274;2024-02-16T04:52:36;6.60;99.90
49124;DHT22;48506;48.202;16.274;2024-02-16T04:55:03;6.60;99.90
49124;DHT22;48506;48.202;16.274;2024-02-16T04:57:33;6.60;99.90
49124;DHT22;48506;48.202;16.274;2024-02-16T04:59:59;6.60;99.90
49124;DHT22;48506;48.202;16.274;2024-02-16T05:02:24;6.60;99.90
49124;DHT22;48506;48.202;16.274;2024-02-16T05:04:50;6.60;99.90
49124;DHT22;48506;48.202;16.274;2024-02-16T05:07:16;6.60;99.90
49124;DHT22;48506;48.202;16.274;2024-02-16T05:09:42;6.60;99.90
49124;DHT22;48506;48.202;16.274;2024-02-16T05:12:08;6.60;99.90
49124;DHT22;48506;48.202;16.274;2024-02-16T05:14:35;6.50;99.90
49124;DHT22;48506;48.202;16.274;2024-02-16T05:17:01;6.60;99.90
49124;DHT22;48506;48.202;16.274;2024-02-16T05:19:27;6.60;99.90
49124;DHT22;48506;48.202;16.274;2024-02-16T05:21:53;6.60;99.90
49124;DHT22;48506;48.202;16.274;2024-02-16T05:24:19;6.60;99.90
49124;DHT22;48506;48.202;16.274;2024-02-16T05:26:46;6.60;99.90
49124;DHT22;48506;48.202;16.274;2024-02-16T05:29:11;6.60;99.90
49124;DHT22;48506;48.202;16.274;2024-02-16T05:31:37;6.60;99.90
49124;DHT22;48506;48.202;16.274;2024-02-16T05:34:03;6.60;99.90
49124;DHT22;48506;48.202;16.274;2024-02-16T05:36:29;6.60;99.90
49124;DHT22;48506;48.202;16.274;2024-02-16T05:39:00;6.60;99.90
49124;DHT22;48506;48.202;16.274;2024-02-16T05:41:35;6.60;99.90
49124;DHT22;48506;48.202;16.274;2024-02-16T05:44:04;6.60;99.90
49124;DHT22;48506;48.202;16.274;2024-02-16T05:46:30;6.60;99.90
49124;DHT22;48506;48.202;16.274;2024-02-16T05:48:56;6.60;99.90
49124;DHT22;48506;48.202;16.274;2024-02-16T05:51:21;6.50;99.90
49124;DHT22;48506;48.202;16.274;2024-02-16T05:53:47;6.50;99.90
49124;DHT22;48506;48.202;16.274;2024-02-16T05:56:13;6.50;99.90
49124;DHT22;48506;48.202;16.274;2024-02-16T05:58:39;6.60;99.90
49124;DHT22;48506;48.202;16.274;2024-02-16T06:01:05;6.60;99.90
49124;DHT22;48506;48.202;16.274;2024-02-16T06:03:31;6.60;99.90
49124;DHT22;48506;48.202;16.274;2024-02-16T06:05:57;6.60;99.90
49124;DHT22;48506;48.202;16.274;2024-02-16T06:08:23;6.60;99.90
49124;DHT22;48506;48.202;16.274;2024-02-16T06:10:49;6.60;99.90
49124;DHT22;48506;48.202;16.274;2024-02-16T06:13:19;6.70;99.90
49124;DHT22;48506;48.202;16.274;2024-02-16T06:15:46;6.70;99.90
49124;DHT22;48506;48.202;16.274;2024-02-16T06:18:13;6.70;99.90
49124;DHT22;48506;48.202;16.274;2024-02-16T06:20:38;6.70;99.90
49124;DHT22;48506;48.202;16.274;2024-02-16T06:23:04;6.70;99.90
49124;DHT22;48506;48.202;16.274;2024-02-16T06:25:30;6.70;99.90
49124;DHT22;48506;48.202;16.274;2024-02-16T06:27:56;6.70;99.90
49124;DHT22;48506;48.202;16.274;2024-02-16T06:30:23;6.70;99.90
49124;DHT22;48506;48.202;16.274;2024-02-16T06:32:49;6.70;99.90
49124;DHT22;48506;48.202;16.274;2024-02-16T06:35:14;6.80;99.90
49124;DHT22;48506;48.202;16.274;2024-02-16T06:37:40;6.80;99.90
49124;DHT22;48506;48.202;16.274;2024-02-16T06:40:07;6.80;99.90
49124;DHT22;48506;48.202;16.274;2024-02-16T06:42:36;6.80;99.90
49124;DHT22;48506;48.202;16.274;2024-02-16T06:45:03;6.80;99.90
49124;DHT22;48506;48.202;16.274;2024-02-16T06:47:29;6.80;99.90
49124;DHT22;48506;48.202;16.274;2024-02-16T06:49:55;6.80;99.80
49124;DHT22;48506;48.202;16.274;2024-02-16T06:52:21;6.90;99.80
49124;DHT22;48506;48.202;16.274;2024-02-16T06:54:47;7.00;99.80
49124;DHT22;48506;48.202;16.274;2024-02-16T06:57:12;7.00;99.80
49124;DHT22;48506;48.202;16.274;2024-02-16T06:59:38;7.00;99.70
49124;DHT22;48506;48.202;16.274;2024-02-16T07:02:04;7.10;99.70
49124;DHT22;48506;48.202;16.274;2024-02-16T07:04:30;7.20;99.60
49124;DHT22;48506;48.202;16.274;2024-02-16T07:06:56;7.20;99.50
49124;DHT22;48506;48.202;16.274;2024-02-16T07:09:22;7.30;99.50
49124;DHT22;48506;48.202;16.274;2024-02-16T07:11:48;7.40;99.40
49124;DHT22;48506;48.202;16.274;2024-02-16T07:14:16;7.40;99.30
49124;DHT22;48506;48.202;16.274;2024-02-16T07:16:42;7.50;99.20
49124;DHT22;48506;48.202;16.274;2024-02-16T07:19:08;7.60;99.20
49124;DHT22;48506;48.202;16.274;2024-02-16T07:21:34;7.60;99.10
49124;DHT22;48506;48.202;16.274;2024-02-16T07:24:00;7.70;99.00
49124;DHT22;48506;48.202;16.274;2024-02-16T07:26:27;7.80;98.80
49124;DHT22;48506;48.202;16.274;2024-02-16T07:28:54;7.90;98.80
49124;DHT22;48506;48.202;16.274;2024-02-16T07:31:20;8.00;98.80
49124;DHT22;48506;48.202;16.274;2024-02-16T07:33:46;8.10;98.70
49124;DHT22;48506;48.202;16.274;2024-02-16T07:36:12;8.20;98.50
49124;DHT22;48506;48.202;16.274;2024-02-16T07:38:39;8.20;98.40
49124;DHT22;48506;48.202;16.274;2024-02-16T07:41:05;8.30;98.20
49124;DHT22;48506;48.202;16.274;2024-02-16T07:43:33;8.40;98.30
49124;DHT22;48506;48.202;16.274;2024-02-16T07:45:58;8.50;98.10
49124;DHT22;48506;48.202;16.274;2024-02-16T07:48:25;8.60;98.00
49124;DHT22;48506;48.202;16.274;2024-02-16T07:50:51;8.80;97.90
49124;DHT22;48506;48.202;16.274;2024-02-16T07:53:16;8.90;97.80
49124;DHT22;48506;48.202;16.274;2024-02-16T07:55:42;9.00;97.60
49124;DHT22;48506;48.202;16.274;2024-02-16T07:58:08;9.10;97.20
49124;DHT22;48506;48.202;16.274;2024-02-16T08:00:34;9.20;97.20
49124;DHT22;48506;48.202;16.274;2024-02-16T08:03:01;9.20;97.10
49124;DHT22;48506;48.202;16.274;2024-02-16T08:05:28;9.40;97.10
49124;DHT22;48506;48.202;16.274;2024-02-16T08:07:54;9.50;97.00
49124;DHT22;48506;48.202;16.274;2024-02-16T08:10:21;9.70;96.80
49124;DHT22;48506;48.202;16.274;2024-02-16T08:12:48;9.80;96.60
49124;DHT22;48506;48.202;16.274;2024-02-16T08:15:13;9.80;96.40
49124;DHT22;48506;48.202;16.274;2024-02-16T08:17:40;9.90;96.30
49124;DHT22;48506;48.202;16.274;2024-02-16T08:20:07;10.00;96.20
49124;DHT22;48506;48.202;16.274;2024-02-16T08:22:33;10.10;96.00
49124;DHT22;48506;48.202;16.274;2024-02-16T08:25:00;10.20;96.20
49124;DHT22;48506;48.202;16.274;2024-02-16T08:27:26;10.30;96.20
49124;DHT22;48506;48.202;16.274;2024-02-16T08:29:52;10.50;95.80
49124;DHT22;48506;48.202;16.274;2024-02-16T08:32:18;10.60;95.90
49124;DHT22;48506;48.202;16.274;2024-02-16T08:34:46;10.80;95.70
49124;DHT22;48506;48.202;16.274;2024-02-16T08:37:14;11.00;95.50
49124;DHT22;48506;48.202;16.274;2024-02-16T08:39:41;11.10;95.00
49124;DHT22;48506;48.202;16.274;2024-02-16T08:42:07;11.20;95.00
49124;DHT22;48506;48.202;16.274;2024-02-16T08:44:35;11.30;94.70
49124;DHT22;48506;48.202;16.274;2024-02-16T08:47:01;11.30;94.80
49124;DHT22;48506;48.202;16.274;2024-02-16T08:49:27;11.50;94.50
49124;DHT22;48506;48.202;16.274;2024-02-16T08:51:53;11.60;94.50
49124;DHT22;48506;48.202;16.274;2024-02-16T08:54:19;11.80;94.60
49124;DHT22;48506;48.202;16.274;2024-02-16T08:56:47;12.00;94.30
49124;DHT22;48506;48.202;16.274;2024-02-16T08:59:14;12.10;94.00
49124;DHT22;48506;48.202;16.274;2024-02-16T09:01:41;12.30;94.10
49124;DHT22;48506;48.202;16.274;2024-02-16T09:04:07;12.50;93.70
49124;DHT22;48506;48.202;16.274;2024-02-16T09:06:33;12.70;93.50
49124;DHT22;48506;48.202;16.274;2024-02-16T09:09:00;12.80;93.10
49124;DHT22;48506;48.202;16.274;2024-02-16T09:11:26;12.90;93.10
49124;DHT22;48506;48.202;16.274;2024-02-16T09:13:53;13.00;93.10
49124;DHT22;48506;48.202;16.274;2024-02-16T09:16:19;13.20;93.00
49124;DHT22;48506;48.202;16.274;2024-02-16T09:18:45;13.30;92.70
49124;DHT22;48506;48.202;16.274;2024-02-16T09:21:11;13.50;92.50
49124;DHT22;48506;48.202;16.274;2024-02-16T09:23:37;13.50;92.40
49124;DHT22;48506;48.202;16.274;2024-02-16T09:26:04;13.70;92.20
49124;DHT22;48506;48.202;16.274;2024-02-16T09:28:30;13.70;92.10
49124;DHT22;48506;48.202;16.274;2024-02-16T09:30:57;13.90;91.90
49124;DHT22;48506;48.202;16.274;2024-02-16T09:33:23;14.00;91.70
49124;DHT22;48506;48.202;16.274;2024-02-16T09:35:50;14.10;91.50
49124;DHT22;48506;48.202;16.274;2024-02-16T09:38:16;14.20;91.40
49124;DHT22;48506;48.202;16.274;2024-02-16T09:40:43;14.40;91.40
49124;DHT22;48506;48.202;16.274;2024-02-16T09:43:09;14.40;91.10
49124;DHT22;48506;48.202;16.274;2024-02-16T09:45:35;14.50;90.70
49124;DHT22;48506;48.202;16.274;2024-02-16T09:48:02;14.50;90.70
49124;DHT22;48506;48.202;16.274;2024-02-16T09:50:33;14.60;90.50
49124;DHT22;48506;48.202;16.274;2024-02-16T09:53:04;14.70;90.70
49124;DHT22;48506;48.202;16.274;2024-02-16T09:55:32;14.90;90.10
49124;DHT22;48506;48.202;16.274;2024-02-16T09:58:02;14.90;90.00
49124;DHT22;48506;48.202;16.274;2024-02-16T10:00:30;15.00;90.30
49124;DHT22;48506;48.202;16.274;2024-02-16T10:02:56;15.20;89.20
49124;DHT22;48506;48.202;16.274;2024-02-16T10:05:22;15.20;88.40
49124;DHT22;48506;48.202;16.274;2024-02-16T10:07:48;15.30;88.30
49124;DHT22;48506;48.202;16.274;2024-02-16T10:10:25;15.40;89.20
49124;DHT22;48506;48.202;16.274;2024-02-16T10:13:02;15.50;88.70
49124;DHT22;48506;48.202;16.274;2024-02-16T10:15:29;15.70;87.10
49124;DHT22;48506;48.202;16.274;2024-02-16T10:18:01;15.80;87.30
49124;DHT22;48506;48.202;16.274;2024-02-16T10:20:28;15.90;86.40
49124;DHT22;48506;48.202;16.274;2024-02-16T10:23:08;16.00;86.30
49124;DHT22;48506;48.202;16.274;2024-02-16T10:25:35;16.10;85.80
49124;DHT22;48506;48.202;16.274;2024-02-16T10:28:09;16.20;85.70
49124;DHT22;48506;48.202;16.274;2024-02-16T10:30:40;16.30;85.30
49124;DHT22;48506;48.202;16.274;2024-02-16T10:33:09;16.30;85.10
49124;DHT22;48506;48.202;16.274;2024-02-16T10:35:36;16.40;84.20
49124;DHT22;48506;48.202;16.274;2024-02-16T10:38:04;16.40;85.10
49124;DHT22;48506;48.202;16.274;2024-02-16T10:40:37;16.40;84.80
49124;DHT22;48506;48.202;16.274;2024-02-16T10:43:04;16.50;84.20
49124;DHT22;48506;48.202;16.274;2024-02-16T10:45:36;16.60;84.50
49124;DHT22;48506;48.202;16.274;2024-02-16T10:48:04;16.70;84.20
49124;DHT22;48506;48.202;16.274;2024-02-16T10:50:33;16.70;83.40
49124;DHT22;48506;48.202;16.274;2024-02-16T10:53:04;16.70;83.10
49124;DHT22;48506;48.202;16.274;2024-02-16T10:55:33;16.90;83.70
49124;DHT22;48506;48.202;16.274;2024-02-16T10:57:59;17.10;82.70
49124;DHT22;48506;48.202;16.274;2024-02-16T11:00:26;17.30;82.50
49124;DHT22;48506;48.202;16.274;2024-02-16T11:02:52;17.50;82.10
49124;DHT22;48506;48.202;16.274;2024-02-16T11:05:40;17.60;81.10
49124;DHT22;48506;48.202;16.274;2024-02-16T11:08:18;17.60;80.60
49124;DHT22;48506;48.202;16.274;2024-02-16T11:11:00;17.70;80.90
49124;DHT22;48506;48.202;16.274;2024-02-16T11:13:28;17.80;80.30
49124;DHT22;48506;48.202;16.274;2024-02-16T11:16:02;17.90;80.70
49124;DHT22;48506;48.202;16.274;2024-02-16T11:18:32;18.10;80.10
49124;DHT22;48506;48.202;16.274;2024-02-16T11:21:02;18.30;78.80
49124;DHT22;48506;48.202;16.274;2024-02-16T11:23:31;18.40;79.10
49124;DHT22;48506;48.202;16.274;2024-02-16T11:26:05;18.60;79.70
49124;DHT22;48506;48.202;16.274;2024-02-16T11:28:35;18.70;77.70
49124;DHT22;48506;48.202;16.274;2024-02-16T11:31:01;18.70;78.10
49124;DHT22;48506;48.202;16.274;2024-02-16T11:33:29;18.80;78.20
49124;DHT22;48506;48.202;16.274;2024-02-16T11:35:59;18.90;76.90
49124;DHT22;48506;48.202;16.274;2024-02-16T11:38:26;18.90;77.30
49124;DHT22;48506;48.202;16.274;2024-02-16T11:40:57;19.00;77.40
49124;DHT22;48506;48.202;16.274;2024-02-16T11:43:24;19.10;76.70
49124;DHT22;48506;48.202;16.274;2024-02-16T11:45:50;19.30;75.70
49124;DHT22;48506;48.202;16.274;2024-02-16T11:48:25;19.40;75.20
49124;DHT22;48506;48.202;16.274;2024-02-16T11:51:04;19.40;75.30
49124;DHT22;48506;48.202;16.274;2024-02-16T11:53:31;19.60;75.50
49124;DHT22;48506;48.202;16.274;2024-02-16T11:55:58;19.60;74.20
49124;DHT22;48506;48.202;16.274;2024-02-16T11:58:25;19.80;75.40
49124;DHT22;48506;48.202;16.274;2024-02-16T12:00:51;19.90;73.90
49124;DHT22;48506;48.202;16.274;2024-02-16T12:03:22;20.00;73.80
49124;DHT22;48506;48.202;16.274;2024-02-16T12:05:52;20.00;73.30
49124;DHT22;48506;48.202;16.274;2024-02-16T12:08:20;20.00;73.50
49124;DHT22;48506;48.202;16.274;2024-02-16T12:10:49;20.10;73.30
49124;DHT22;48506;48.202;16.274;2024-02-16T12:13:20;20.10;73.10
49124;DHT22;48506;48.202;16.274;2024-02-16T12:15:47;20.20;72.50
49124;DHT22;48506;48.202;16.274;2024-02-16T12:18:23;20.10;72.30
49124;DHT22;48506;48.202;16.274;2024-02-16T12:21:03;20.10;73.40
49124;DHT22;48506;48.202;16.274;2024-02-16T12:23:32;20.20;72.60
49124;DHT22;48506;48.202;16.274;2024-02-16T12:25:59;20.20;72.60
49124;DHT22;48506;48.202;16.274;2024-02-16T12:28:27;20.40;72.30
49124;DHT22;48506;48.202;16.274;2024-02-16T12:30:54;20.40;71.70
49124;DHT22;48506;48.202;16.274;2024-02-16T12:33:22;20.60;72.40
49124;DHT22;48506;48.202;16.274;2024-02-16T12:35:48;20.80;71.30
49124;DHT22;48506;48.202;16.274;2024-02-16T12:38:14;21.00;71.30
49124;DHT22;48506;48.202;16.274;2024-02-16T12:40:43;21.20;71.10
49124;DHT22;48506;48.202;16.274;2024-02-16T12:43:09;21.30;70.70
49124;DHT22;48506;48.202;16.274;2024-02-16T12:45:37;21.20;70.10
49124;DHT22;48506;48.202;16.274;2024-02-16T12:48:03;21.00;69.60
49124;DHT22;48506;48.202;16.274;2024-02-16T12:50:31;20.90;70.20
49124;DHT22;48506;48.202;16.274;2024-02-16T12:52:57;20.80;70.20
49124;DHT22;48506;48.202;16.274;2024-02-16T12:55:24;20.70;70.50
49124;DHT22;48506;48.202;16.274;2024-02-16T12:57:50;20.70;69.90
49124;DHT22;48506;48.202;16.274;2024-02-16T13:00:17;20.50;70.10
49124;DHT22;48506;48.202;16.274;2024-02-16T13:02:43;20.50;70.20
49124;DHT22;48506;48.202;16.274;2024-02-16T13:05:09;20.70;70.10
49124;DHT22;48506;48.202;16.274;2024-02-16T13:07:37;20.80;70.30
49124;DHT22;48506;48.202;16.274;2024-02-16T13:10:06;20.80;70.00
49124;DHT22;48506;48.202;16.274;2024-02-16T13:12:33;20.80;69.60
49124;DHT22;48506;48.202;16.274;2024-02-16T13:14:59;20.90;70.20
49124;DHT22;48506;48.202;16.274;2024-02-16T13:17:25;21.10;69.50
49124;DHT22;48506;48.202;16.274;2024-02-16T13:19:52;21.20;69.00
49124;DHT22;48506;48.202;16.274;2024-02-16T13:22:18;21.20;68.10
49124;DHT22;48506;48.202;16.274;2024-02-16T13:24:44;21.30;68.00
49124;DHT22;48506;48.202;16.274;2024-02-16T13:27:10;21.30;67.50
49124;DHT22;48506;48.202;16.274;2024-02-16T13:29:36;21.30;68.30
49124;DHT22;48506;48.202;16.274;2024-02-16T13:32:02;21.60;67.50
49124;DHT22;48506;48.202;16.274;2024-02-16T13:34:29;21.90;67.40
49124;DHT22;48506;48.202;16.274;2024-02-16T13:36:56;22.10;67.30
49124;DHT22;48506;48.202;16.274;2024-02-16T13:39:22;22.10;65.40
49124;DHT22;48506;48.202;16.274;2024-02-16T13:41:48;22.40;66.00
49124;DHT22;48506;48.202;16.274;2024-02-16T13:44:17;22.80;64.50
49124;DHT22;48506;48.202;16.274;2024-02-16T13:46:46;23.20;64.10
49124;DHT22;48506;48.202;16.274;2024-02-16T13:49:13;23.80;63.20
49124;DHT22;48506;48.202;16.274;2024-02-16T13:51:42;24.10;62.10
49124;DHT22;48506;48.202;16.274;2024-02-16T13:54:08;24.00;62.20
49124;DHT22;48506;48.202;16.274;2024-02-16T13:56:34;23.70;62.20
49124;DHT22;48506;48.202;16.274;2024-02-16T13:59:05;23.70;62.20
49124;DHT22;48506;48.202;16.274;2024-02-16T14:01:33;23.90;62.20
49124;DHT22;48506;48.202;16.274;2024-02-16T14:04:00;24.20;61.80
49124;DHT22;48506;48.202;16.274;2024-02-16T14:06:26;24.50;60.60
49124;DHT22;48506;48.202;16.274;2024-02-16T14:08:52;24.90;59.90
49124;DHT22;48506;48.202;16.274;2024-02-16T14:11:19;25.30;59.50
49124;DHT22;48506;48.202;16.274;2024-02-16T14:13:45;25.60;59.10
49124;DHT22;48506;48.202;16.274;2024-02-16T14:16:11;25.40;58.10
49124;DHT22;48506;48.202;16.274;2024-02-16T14:18:37;24.80;59.00
49124;DHT22;48506;48.202;16.274;2024-02-16T14:21:04;24.40;59.50
49124;DHT22;48506;48.202;16.274;2024-02-16T14:23:30;24.40;59.50
49124;DHT22;48506;48.202;16.274;2024-02-16T14:25:57;24.50;59.00
49124;DHT22;48506;48.202;16.274;2024-02-16T14:28:24;24.50;59.30
49124;DHT22;48506;48.202;16.274;2024-02-16T14:30:50;24.70;59.00
49124;DHT22;48506;48.202;16.274;2024-02-16T14:33:18;24.70;58.50
49124;DHT22;48506;48.202;16.274;2024-02-16T14:35:44;24.60;58.50
49124;DHT22;48506;48.202;16.274;2024-02-16T14:38:11;24.40;58.60
49124;DHT22;48506;48.202;16.274;2024-02-16T14:40:39;24.00;58.60
49124;DHT22;48506;48.202;16.274;2024-02-16T14:43:05;23.60;59.00
49124;DHT22;48506;48.202;16.274;2024-02-16T14:45:31;23.20;59.60
49124;DHT22;48506;48.202;16.274;2024-02-16T14:47:56;23.20;59.70
49124;DHT22;48506;48.202;16.274;2024-02-16T14:50:23;23.20;59.50
49124;DHT22;48506;48.202;16.274;2024-02-16T14:52:50;23.00;60.10
49124;DHT22;48506;48.202;16.274;2024-02-16T14:55:16;22.70;60.10
49124;DHT22;48506;48.202;16.274;2024-02-16T14:57:43;22.50;60.20
49124;DHT22;48506;48.202;16.274;2024-02-16T15:00:12;22.40;60.40
49124;DHT22;48506;48.202;16.274;2024-02-16T15:02:39;22.30;60.70
49124;DHT22;48506;48.202;16.274;2024-02-16T15:05:07;22.20;60.20
49124;DHT22;48506;48.202;16.274;2024-02-16T15:07:34;22.40;60.40
49124;DHT22;48506;48.202;16.274;2024-02-16T15:10:01;22.60;59.90
49124;DHT22;48506;48.202;16.274;2024-02-16T15:12:28;22.90;59.30
49124;DHT22;48506;48.202;16.274;2024-02-16T15:14:54;23.10;58.80
49124;DHT22;48506;48.202;16.274;2024-02-16T15:17:20;23.10;58.80
49124;DHT22;48506;48.202;16.274;2024-02-16T15:19:47;23.00;59.40
49124;DHT22;48506;48.202;16.274;2024-02-16T15:22:13;23.10;58.80
49124;DHT22;48506;48.202;16.274;2024-02-16T15:24:39;23.20;58.70